sensor_id;sensor_type;location;lat;lon;timestamp;P1;durP1;ratioP1;P2;durP2;ratioP2
47772;SDS011;33534;51.028;13.716;2023-08-08T00:01:21;8.13;;;2.70;;
47772;SDS011;33534;51.028;13.716;2023-08-08T00:03:47;5.65;;;2.80;;
47772;SDS011;33534;51.028;13.716;2023-08-08T00:06:13;10.40;;;2.78;;
47772;SDS011;33534;51.028;13.716;2023-08-08T00:08:39;6.93;;;2.67;;
47772;SDS011;33534;51.028;13.716;2023-08-08T00:11:05;4.10;;;2.75;;
47772;SDS011;33534;51.028;13.716;2023-08-08T00:13:31;10.50;;;2.83;;
47772;SDS011;33534;51.028;13.716;2023-08-08T00:15:57;5.75;;;2.50;;
47772;SDS011;33534;51.028;13.716;2023-08-08T00:18:23;3.50;;;2.28;;
47772;SDS011;33534;51.028;13.716;2023-08-08T00:20:49;7.43;;;3.20;;
47772;SDS011;33534;51.028;13.716;2023-08-08T00:23:15;7.05;;;2.53;;
47772;SDS011;33534;51.028;13.716;2023-08-08T00:25:41;8.38;;;2.75;;
47772;SDS011;33534;51.028;13.716;2023-08-08T00:28:07;8.38;;;2.50;;
47772;SDS011;33534;51.028;13.716;2023-08-08T00:30:33;10.10;;;3.25;;
47772;SDS011;33534;51.028;13.716;2023-08-08T00:32:59;4.35;;;2.40;;
47772;SDS011;33534;51.028;13.716;2023-08-08T00:35:25;8.68;;;3.00;;
47772;SDS011;33534;51.028;13.716;2023-08-08T00:37:51;7.70;;;3.22;;
47772;SDS011;33534;51.028;13.716;2023-08-08T00:40:17;9.57;;;2.80;;
47772;SDS011;33534;51.028;13.716;2023-08-08T00:42:43;4.45;;;2.60;;
47772;SDS011;33534;51.028;13.716;2023-08-08T00:45:09;5.38;;;3.13;;
47772;SDS011;33534;51.028;13.716;2023-08-08T00:47:35;8.63;;;2.70;;
47772;SDS011;33534;51.028;13.716;2023-08-08T00:50:02;7.90;;;3.00;;
47772;SDS011;33534;51.028;13.716;2023-08-08T00:52:28;7.55;;;2.97;;
47772;SDS011;33534;51.028;13.716;2023-08-08T00:54:54;8.95;;;2.95;;
47772;SDS011;33534;51.028;13.716;2023-08-08T00:57:21;6.35;;;2.97;;
47772;SDS011;33534;51.028;13.716;2023-08-08T00:59:47;8.65;;;3.17;;
47772;SDS011;33534;51.028;13.716;2023-08-08T01:02:13;8.07;;;2.90;;
47772;SDS011;33534;51.028;13.716;2023-08-08T01:04:39;7.88;;;3.15;;
47772;SDS011;33534;51.028;13.716;2023-08-08T01:07:12;7.78;;;3.13;;
47772;SDS011;33534;51.028;13.716;2023-08-08T01:12:10;4.45;;;2.58;;
47772;SDS011;33534;51.028;13.716;2023-08-08T01:14:36;7.25;;;3.13;;
47772;SDS011;33534;51.028;13.716;2023-08-08T01:17:04;6.15;;;2.70;;
47772;SDS011;33534;51.028;13.716;2023-08-08T01:19:30;3.58;;;2.45;;
47772;SDS011;33534;51.028;13.716;2023-08-08T01:21:58;5.63;;;3.15;;
47772;SDS011;33534;51.028;13.716;2023-08-08T01:24:28;6.57;;;3.47;;
47772;SDS011;33534;51.028;13.716;2023-08-08T01:26:58;9.23;;;3.40;;
47772;SDS011;33534;51.028;13.716;2023-08-08T01:29:25;6.88;;;2.97;;
47772;SDS011;33534;51.028;13.716;2023-08-08T01:31:51;10.55;;;3.80;;
47772;SDS011;33534;51.028;13.716;2023-08-08T01:34:17;8.88;;;3.10;;
47772;SDS011;33534;51.028;13.716;2023-08-08T01:36:48;8.90;;;3.75;;
47772;SDS011;33534;51.028;13.716;2023-08-08T01:41:40;8.55;;;3.58;;
47772;SDS011;33534;51.028;13.716;2023-08-08T01:44:07;8.50;;;3.42;;
47772;SDS011;33534;51.028;13.716;2023-08-08T01:46:33;5.55;;;2.90;;
47772;SDS011;33534;51.028;13.716;2023-08-08T01:49:01;10.80;;;2.97;;
47772;SDS011;33534;51.028;13.716;2023-08-08T01:51:27;6.82;;;2.90;;
47772;SDS011;33534;51.028;13.716;2023-08-08T01:53:53;14.40;;;3.40;;
47772;SDS011;33534;51.028;13.716;2023-08-08T01:56:19;7.75;;;2.90;;
47772;SDS011;33534;51.028;13.716;2023-08-08T01:58:45;6.50;;;3.33;;
47772;SDS011;33534;51.028;13.716;2023-08-08T02:01:11;6.15;;;2.30;;
47772;SDS011;33534;51.028;13.716;2023-08-08T02:03:37;6.97;;;3.05;;
47772;SDS011;33534;51.028;13.716;2023-08-08T02:06:03;4.32;;;2.90;;
47772;SDS011;33534;51.028;13.716;2023-08-08T02:08:29;4.95;;;2.45;;
47772;SDS011;33534;51.028;13.716;2023-08-08T02:10:55;7.40;;;3.08;;
47772;SDS011;33534;51.028;13.716;2023-08-08T02:13:21;6.68;;;3.13;;
47772;SDS011;33534;51.028;13.716;2023-08-08T02:15:47;7.82;;;2.85;;
47772;SDS011;33534;51.028;13.716;2023-08-08T02:18:13;6.95;;;2.85;;
47772;SDS011;33534;51.028;13.716;2023-08-08T02:20:39;6.13;;;2.85;;
47772;SDS011;33534;51.028;13.716;2023-08-08T02:23:05;7.00;;;2.50;;
47772;SDS011;33534;51.028;13.716;2023-08-08T02:25:31;5.55;;;2.67;;
47772;SDS011;33534;51.028;13.716;2023-08-08T02:27:57;6.95;;;2.95;;
47772;SDS011;33534;51.028;13.716;2023-08-08T02:30:23;6.00;;;2.45;;
47772;SDS011;33534;51.028;13.716;2023-08-08T02:32:49;5.32;;;2.97;;
47772;SDS011;33534;51.028;13.716;2023-08-08T02:35:15;6.13;;;2.75;;
47772;SDS011;33534;51.028;13.716;2023-08-08T02:37:41;5.05;;;2.97;;
47772;SDS011;33534;51.028;13.716;2023-08-08T02:40:07;4.28;;;2.45;;
47772;SDS011;33534;51.028;13.716;2023-08-08T02:42:34;8.70;;;2.60;;
47772;SDS011;33534;51.028;13.716;2023-08-08T02:45:00;4.65;;;2.75;;
47772;SDS011;33534;51.028;13.716;2023-08-08T02:47:26;5.88;;;3.25;;
47772;SDS011;33534;51.028;13.716;2023-08-08T02:49:52;6.55;;;2.92;;
47772;SDS011;33534;51.028;13.716;2023-08-08T02:52:18;5.10;;;2.55;;
47772;SDS011;33534;51.028;13.716;2023-08-08T02:54:44;6.93;;;2.92;;
47772;SDS011;33534;51.028;13.716;2023-08-08T02:57:10;6.05;;;2.50;;
47772;SDS011;33534;51.028;13.716;2023-08-08T02:59:37;7.60;;;2.63;;
47772;SDS011;33534;51.028;13.716;2023-08-08T03:02:03;7.68;;;3.35;;
47772;SDS011;33534;51.028;13.716;2023-08-08T03:04:29;5.72;;;2.20;;
47772;SDS011;33534;51.028;13.716;2023-08-08T03:06:55;7.20;;;3.20;;
47772;SDS011;33534;51.028;13.716;2023-08-08T03:09:21;8.70;;;4.07;;
47772;SDS011;33534;51.028;13.716;2023-08-08T03:11:47;8.88;;;3.10;;
47772;SDS011;33534;51.028;13.716;2023-08-08T03:14:13;10.18;;;2.40;;
47772;SDS011;33534;51.028;13.716;2023-08-08T03:16:39;6.00;;;2.17;;
47772;SDS011;33534;51.028;13.716;2023-08-08T03:19:05;8.73;;;2.67;;
47772;SDS011;33534;51.028;13.716;2023-08-08T03:21:31;6.53;;;2.85;;
47772;SDS011;33534;51.028;13.716;2023-08-08T03:23:57;4.47;;;2.67;;
47772;SDS011;33534;51.028;13.716;2023-08-08T03:26:23;4.97;;;2.72;;
47772;SDS011;33534;51.028;13.716;2023-08-08T03:28:50;5.30;;;2.85;;
47772;SDS011;33534;51.028;13.716;2023-08-08T03:31:18;7.53;;;2.72;;
47772;SDS011;33534;51.028;13.716;2023-08-08T03:33:44;5.40;;;2.83;;
47772;SDS011;33534;51.028;13.716;2023-08-08T03:36:10;7.13;;;2.90;;
47772;SDS011;33534;51.028;13.716;2023-08-08T03:38:36;5.68;;;3.55;;
47772;SDS011;33534;51.028;13.716;2023-08-08T03:41:05;6.28;;;3.35;;
47772;SDS011;33534;51.028;13.716;2023-08-08T03:43:33;7.10;;;3.15;;
47772;SDS011;33534;51.028;13.716;2023-08-08T03:45:59;5.38;;;2.60;;
47772;SDS011;33534;51.028;13.716;2023-08-08T03:48:25;9.48;;;2.60;;
47772;SDS011;33534;51.028;13.716;2023-08-08T03:50:51;4.82;;;2.80;;
47772;SDS011;33534;51.028;13.716;2023-08-08T03:53:17;6.70;;;2.83;;
47772;SDS011;33534;51.028;13.716;2023-08-08T03:55:43;8.13;;;2.40;;
47772;SDS011;33534;51.028;13.716;2023-08-08T03:58:09;5.57;;;2.65;;
47772;SDS011;33534;51.028;13.716;2023-08-08T04:00:35;6.88;;;2.60;;
47772;SDS011;33534;51.028;13.716;2023-08-08T04:03:01;6.90;;;2.97;;
47772;SDS011;33534;51.028;13.716;2023-08-08T04:05:27;6.78;;;2.92;;
47772;SDS011;33534;51.028;13.716;2023-08-08T04:07:53;7.22;;;2.55;;
47772;SDS011;33534;51.028;13.716;2023-08-08T04:10:19;5.05;;;2.65;;
47772;SDS011;33534;51.028;13.716;2023-08-08T04:12:45;5.00;;;2.75;;
47772;SDS011;33534;51.028;13.716;2023-08-08T04:15:11;6.55;;;2.63;;
47772;SDS011;33534;51.028;13.716;2023-08-08T04:17:37;4.70;;;2.38;;
47772;SDS011;33534;51.028;13.716;2023-08-08T04:20:03;7.15;;;2.60;;
47772;SDS011;33534;51.028;13.716;2023-08-08T04:22:31;4.43;;;2.58;;
47772;SDS011;33534;51.028;13.716;2023-08-08T04:24:57;5.07;;;2.60;;
47772;SDS011;33534;51.028;13.716;2023-08-08T04:27:23;4.68;;;2.05;;
47772;SDS011;33534;51.028;13.716;2023-08-08T04:29:49;4.00;;;1.70;;
47772;SDS011;33534;51.028;13.716;2023-08-08T04:32:15;5.10;;;1.85;;
47772;SDS011;33534;51.028;13.716;2023-08-08T04:34:41;4.70;;;1.90;;
47772;SDS011;33534;51.028;13.716;2023-08-08T04:37:07;2.75;;;1.48;;
47772;SDS011;33534;51.028;13.716;2023-08-08T04:39:33;2.97;;;2.20;;
47772;SDS011;33534;51.028;13.716;2023-08-08T04:41:59;4.45;;;2.05;;
47772;SDS011;33534;51.028;13.716;2023-08-08T04:44:25;3.50;;;2.22;;
47772;SDS011;33534;51.028;13.716;2023-08-08T04:46:51;3.20;;;1.85;;
47772;SDS011;33534;51.028;13.716;2023-08-08T04:49:17;4.72;;;1.95;;
47772;SDS011;33534;51.028;13.716;2023-08-08T04:51:43;5.47;;;2.58;;
47772;SDS011;33534;51.028;13.716;2023-08-08T04:54:09;3.17;;;1.67;;
47772;SDS011;33534;51.028;13.716;2023-08-08T04:56:35;6.68;;;2.20;;
47772;SDS011;33534;51.028;13.716;2023-08-08T04:59:01;4.88;;;2.22;;
47772;SDS011;33534;51.028;13.716;2023-08-08T05:01:27;3.50;;;2.00;;
47772;SDS011;33534;51.028;13.716;2023-08-08T05:03:53;4.90;;;2.05;;
47772;SDS011;33534;51.028;13.716;2023-08-08T05:06:19;3.17;;;2.47;;
47772;SDS011;33534;51.028;13.716;2023-08-08T05:08:45;7.60;;;2.72;;
47772;SDS011;33534;51.028;13.716;2023-08-08T05:11:11;4.80;;;2.17;;
47772;SDS011;33534;51.028;13.716;2023-08-08T05:13:37;3.97;;;2.40;;
47772;SDS011;33534;51.028;13.716;2023-08-08T05:16:03;5.75;;;2.50;;
47772;SDS011;33534;51.028;13.716;2023-08-08T05:18:31;4.53;;;2.45;;
47772;SDS011;33534;51.028;13.716;2023-08-08T05:20:57;4.88;;;1.90;;
47772;SDS011;33534;51.028;13.716;2023-08-08T05:23:23;7.80;;;2.13;;
47772;SDS011;33534;51.028;13.716;2023-08-08T05:25:49;4.25;;;1.77;;
47772;SDS011;33534;51.028;13.716;2023-08-08T05:28:15;8.35;;;1.95;;
47772;SDS011;33534;51.028;13.716;2023-08-08T05:30:41;5.72;;;1.95;;
47772;SDS011;33534;51.028;13.716;2023-08-08T05:33:07;5.65;;;2.33;;
47772;SDS011;33534;51.028;13.716;2023-08-08T05:35:33;4.07;;;1.63;;
47772;SDS011;33534;51.028;13.716;2023-08-08T05:37:59;3.10;;;2.17;;
47772;SDS011;33534;51.028;13.716;2023-08-08T05:40:25;4.43;;;1.98;;
47772;SDS011;33534;51.028;13.716;2023-08-08T05:42:51;5.38;;;1.85;;
47772;SDS011;33534;51.028;13.716;2023-08-08T05:45:17;2.58;;;1.83;;
47772;SDS011;33534;51.028;13.716;2023-08-08T05:47:43;2.00;;;1.45;;
47772;SDS011;33534;51.028;13.716;2023-08-08T05:50:09;2.55;;;1.58;;
47772;SDS011;33534;51.028;13.716;2023-08-08T05:52:35;2.88;;;1.98;;
47772;SDS011;33534;51.028;13.716;2023-08-08T05:55:01;3.10;;;1.58;;
47772;SDS011;33534;51.028;13.716;2023-08-08T05:57:27;6.60;;;2.25;;
47772;SDS011;33534;51.028;13.716;2023-08-08T05:59:53;2.13;;;1.50;;
47772;SDS011;33534;51.028;13.716;2023-08-08T06:02:19;3.20;;;2.00;;
47772;SDS011;33534;51.028;13.716;2023-08-08T06:04:45;4.40;;;1.83;;
47772;SDS011;33534;51.028;13.716;2023-08-08T06:07:11;2.92;;;1.95;;
47772;SDS011;33534;51.028;13.716;2023-08-08T06:09:37;7.70;;;2.00;;
47772;SDS011;33534;51.028;13.716;2023-08-08T06:12:03;4.55;;;2.10;;
47772;SDS011;33534;51.028;13.716;2023-08-08T06:14:30;2.95;;;1.90;;
47772;SDS011;33534;51.028;13.716;2023-08-08T06:16:56;2.83;;;1.50;;
47772;SDS011;33534;51.028;13.716;2023-08-08T06:19:22;6.05;;;2.10;;
47772;SDS011;33534;51.028;13.716;2023-08-08T06:21:48;3.67;;;1.67;;
47772;SDS011;33534;51.028;13.716;2023-08-08T06:24:15;4.30;;;1.77;;
47772;SDS011;33534;51.028;13.716;2023-08-08T06:26:41;2.45;;;1.55;;
47772;SDS011;33534;51.028;13.716;2023-08-08T06:29:07;4.47;;;2.10;;
47772;SDS011;33534;51.028;13.716;2023-08-08T06:31:33;3.22;;;1.90;;
47772;SDS011;33534;51.028;13.716;2023-08-08T06:33:59;7.53;;;1.73;;
47772;SDS011;33534;51.028;13.716;2023-08-08T06:36:25;6.20;;;1.92;;
47772;SDS011;33534;51.028;13.716;2023-08-08T06:38:51;6.63;;;1.85;;
47772;SDS011;33534;51.028;13.716;2023-08-08T06:41:17;6.95;;;2.00;;
47772;SDS011;33534;51.028;13.716;2023-08-08T06:43:43;4.03;;;2.33;;
47772;SDS011;33534;51.028;13.716;2023-08-08T06:46:09;4.20;;;2.17;;
47772;SDS011;33534;51.028;13.716;2023-08-08T06:48:35;4.70;;;2.17;;
47772;SDS011;33534;51.028;13.716;2023-08-08T06:51:01;4.43;;;2.35;;
47772;SDS011;33534;51.028;13.716;2023-08-08T06:53:27;6.07;;;2.17;;
47772;SDS011;33534;51.028;13.716;2023-08-08T06:55:53;3.95;;;1.73;;
47772;SDS011;33534;51.028;13.716;2023-08-08T06:58:19;5.10;;;2.05;;
47772;SDS011;33534;51.028;13.716;2023-08-08T07:00:45;6.22;;;2.33;;
47772;SDS011;33534;51.028;13.716;2023-08-08T07:03:11;4.32;;;1.70;;
47772;SDS011;33534;51.028;13.716;2023-08-08T07:05:37;3.25;;;2.05;;
47772;SDS011;33534;51.028;13.716;2023-08-08T07:08:04;14.75;;;3.63;;
47772;SDS011;33534;51.028;13.716;2023-08-08T07:10:30;5.90;;;3.70;;
47772;SDS011;33534;51.028;13.716;2023-08-08T07:12:56;5.32;;;1.73;;
47772;SDS011;33534;51.028;13.716;2023-08-08T07:15:22;7.97;;;2.20;;
47772;SDS011;33534;51.028;13.716;2023-08-08T07:17:49;4.43;;;1.45;;
47772;SDS011;33534;51.028;13.716;2023-08-08T07:20:15;3.53;;;1.52;;
47772;SDS011;33534;51.028;13.716;2023-08-08T07:22:41;3.33;;;1.77;;
47772;SDS011;33534;51.028;13.716;2023-08-08T07:25:07;5.55;;;1.85;;
47772;SDS011;33534;51.028;13.716;2023-08-08T07:27:33;4.68;;;1.92;;
47772;SDS011;33534;51.028;13.716;2023-08-08T07:29:59;5.95;;;2.22;;
47772;SDS011;33534;51.028;13.716;2023-08-08T07:32:26;3.53;;;1.30;;
47772;SDS011;33534;51.028;13.716;2023-08-08T07:34:52;4.90;;;2.20;;
47772;SDS011;33534;51.028;13.716;2023-08-08T07:37:18;2.70;;;1.45;;
47772;SDS011;33534;51.028;13.716;2023-08-08T07:39:56;2.35;;;1.52;;
47772;SDS011;33534;51.028;13.716;2023-08-08T07:42:22;3.08;;;1.88;;
47772;SDS011;33534;51.028;13.716;2023-08-08T07:44:48;4.22;;;1.60;;
47772;SDS011;33534;51.028;13.716;2023-08-08T07:47:14;3.10;;;1.70;;
47772;SDS011;33534;51.028;13.716;2023-08-08T07:49:40;3.70;;;2.22;;
47772;SDS011;33534;51.028;13.716;2023-08-08T07:52:06;2.65;;;1.00;;
47772;SDS011;33534;51.028;13.716;2023-08-08T07:54:32;4.07;;;1.52;;
47772;SDS011;33534;51.028;13.716;2023-08-08T07:56:58;4.38;;;1.65;;
47772;SDS011;33534;51.028;13.716;2023-08-08T07:59:25;3.35;;;1.77;;
47772;SDS011;33534;51.028;13.716;2023-08-08T08:01:51;6.15;;;1.65;;
47772;SDS011;33534;51.028;13.716;2023-08-08T08:04:17;5.97;;;1.58;;
47772;SDS011;33534;51.028;13.716;2023-08-08T08:06:43;3.20;;;1.40;;
47772;SDS011;33534;51.028;13.716;2023-08-08T08:09:09;2.45;;;1.50;;
47772;SDS011;33534;51.028;13.716;2023-08-08T08:11:35;2.72;;;2.05;;
47772;SDS011;33534;51.028;13.716;2023-08-08T08:14:01;4.57;;;1.50;;
47772;SDS011;33534;51.028;13.716;2023-08-08T08:16:28;3.88;;;1.40;;
47772;SDS011;33534;51.028;13.716;2023-08-08T08:18:54;3.05;;;1.33;;
47772;SDS011;33534;51.028;13.716;2023-08-08T08:21:20;2.50;;;1.35;;
47772;SDS011;33534;51.028;13.716;2023-08-08T08:23:46;3.63;;;1.38;;
47772;SDS011;33534;51.028;13.716;2023-08-08T08:26:12;2.58;;;1.70;;
47772;SDS011;33534;51.028;13.716;2023-08-08T08:28:38;4.95;;;2.30;;
47772;SDS011;33534;51.028;13.716;2023-08-08T08:31:05;2.95;;;1.67;;
47772;SDS011;33534;51.028;13.716;2023-08-08T08:33:31;2.40;;;1.42;;
47772;SDS011;33534;51.028;13.716;2023-08-08T08:35:57;3.60;;;1.42;;
47772;SDS011;33534;51.028;13.716;2023-08-08T08:38:23;1.75;;;1.20;;
47772;SDS011;33534;51.028;13.716;2023-08-08T08:40:49;4.47;;;1.30;;
47772;SDS011;33534;51.028;13.716;2023-08-08T08:43:19;1.77;;;1.00;;
47772;SDS011;33534;51.028;13.716;2023-08-08T08:45:47;5.30;;;1.38;;
47772;SDS011;33534;51.028;13.716;2023-08-08T08:48:16;1.58;;;1.05;;
47772;SDS011;33534;51.028;13.716;2023-08-08T08:50:42;5.82;;;1.27;;
47772;SDS011;33534;51.028;13.716;2023-08-08T08:53:09;1.60;;;1.27;;
47772;SDS011;33534;51.028;13.716;2023-08-08T08:55:36;1.85;;;1.15;;
47772;SDS011;33534;51.028;13.716;2023-08-08T08:58:02;1.27;;;1.00;;
47772;SDS011;33534;51.028;13.716;2023-08-08T09:00:29;4.65;;;1.33;;
47772;SDS011;33534;51.028;13.716;2023-08-08T09:02:56;2.88;;;1.00;;
47772;SDS011;33534;51.028;13.716;2023-08-08T09:05:22;3.00;;;1.63;;
47772;SDS011;33534;51.028;13.716;2023-08-08T09:07:50;3.97;;;1.40;;
47772;SDS011;33534;51.028;13.716;2023-08-08T09:10:16;2.63;;;1.30;;
47772;SDS011;33534;51.028;13.716;2023-08-08T09:12:42;3.15;;;1.40;;
47772;SDS011;33534;51.028;13.716;2023-08-08T09:15:09;2.25;;;1.45;;
47772;SDS011;33534;51.028;13.716;2023-08-08T09:17:35;7.53;;;1.98;;
47772;SDS011;33534;51.028;13.716;2023-08-08T09:20:01;2.75;;;1.67;;
47772;SDS011;33534;51.028;13.716;2023-08-08T09:22:29;4.85;;;1.63;;
47772;SDS011;33534;51.028;13.716;2023-08-08T09:24:55;5.53;;;1.80;;
47772;SDS011;33534;51.028;13.716;2023-08-08T09:27:21;6.15;;;1.75;;
47772;SDS011;33534;51.028;13.716;2023-08-08T09:29:47;1.98;;;1.58;;
47772;SDS011;33534;51.028;13.716;2023-08-08T09:32:13;3.35;;;1.73;;
47772;SDS011;33534;51.028;13.716;2023-08-08T09:34:41;4.25;;;1.52;;
47772;SDS011;33534;51.028;13.716;2023-08-08T09:37:07;3.78;;;1.52;;
47772;SDS011;33534;51.028;13.716;2023-08-08T09:39:35;4.18;;;1.77;;
47772;SDS011;33534;51.028;13.716;2023-08-08T09:42:02;3.85;;;1.70;;
47772;SDS011;33534;51.028;13.716;2023-08-08T09:44:29;3.83;;;1.80;;
47772;SDS011;33534;51.028;13.716;2023-08-08T09:46:56;6.55;;;2.10;;
47772;SDS011;33534;51.028;13.716;2023-08-08T09:49:22;1.98;;;1.65;;
47772;SDS011;33534;51.028;13.716;2023-08-08T09:51:49;1.75;;;1.27;;
47772;SDS011;33534;51.028;13.716;2023-08-08T09:54:16;2.15;;;1.60;;
47772;SDS011;33534;51.028;13.716;2023-08-08T09:56:42;3.45;;;1.60;;
47772;SDS011;33534;51.028;13.716;2023-08-08T09:59:09;3.58;;;2.20;;
47772;SDS011;33534;51.028;13.716;2023-08-08T10:01:36;3.28;;;1.52;;
47772;SDS011;33534;51.028;13.716;2023-08-08T10:04:04;4.82;;;1.80;;
47772;SDS011;33534;51.028;13.716;2023-08-08T10:06:31;8.02;;;1.80;;
47772;SDS011;33534;51.028;13.716;2023-08-08T10:08:58;3.90;;;1.73;;
47772;SDS011;33534;51.028;13.716;2023-08-08T10:11:24;4.03;;;1.83;;
47772;SDS011;33534;51.028;13.716;2023-08-08T10:13:52;3.33;;;1.45;;
47772;SDS011;33534;51.028;13.716;2023-08-08T10:16:19;3.55;;;1.60;;
47772;SDS011;33534;51.028;13.716;2023-08-08T10:18:45;3.58;;;1.33;;
47772;SDS011;33534;51.028;13.716;2023-08-08T10:21:12;3.50;;;1.25;;
47772;SDS011;33534;51.028;13.716;2023-08-08T10:23:39;6.95;;;1.85;;
47772;SDS011;33534;51.028;13.716;2023-08-08T10:26:16;2.13;;;1.63;;
47772;SDS011;33534;51.028;13.716;2023-08-08T10:28:52;9.82;;;1.83;;
47772;SDS011;33534;51.028;13.716;2023-08-08T10:31:19;2.72;;;1.40;;
47772;SDS011;33534;51.028;13.716;2023-08-08T10:33:46;1.90;;;1.48;;
47772;SDS011;33534;51.028;13.716;2023-08-08T10:36:12;3.08;;;1.80;;
47772;SDS011;33534;51.028;13.716;2023-08-08T10:38:42;1.88;;;1.30;;
47772;SDS011;33534;51.028;13.716;2023-08-08T10:41:12;3.65;;;1.67;;
47772;SDS011;33534;51.028;13.716;2023-08-08T10:43:46;2.40;;;1.13;;
47772;SDS011;33534;51.028;13.716;2023-08-08T10:46:13;3.83;;;1.85;;
47772;SDS011;33534;51.028;13.716;2023-08-08T10:48:48;2.63;;;1.73;;
47772;SDS011;33534;51.028;13.716;2023-08-08T10:51:14;8.48;;;1.63;;
47772;SDS011;33534;51.028;13.716;2023-08-08T10:53:41;4.65;;;1.60;;
47772;SDS011;33534;51.028;13.716;2023-08-08T10:56:11;1.40;;;1.30;;
47772;SDS011;33534;51.028;13.716;2023-08-08T10:58:38;3.60;;;1.27;;
47772;SDS011;33534;51.028;13.716;2023-08-08T11:01:05;3.08;;;1.20;;
47772;SDS011;33534;51.028;13.716;2023-08-08T11:03:39;5.55;;;1.60;;
47772;SDS011;33534;51.028;13.716;2023-08-08T11:06:06;3.65;;;1.60;;
47772;SDS011;33534;51.028;13.716;2023-08-08T11:08:33;3.78;;;1.55;;
47772;SDS011;33534;51.028;13.716;2023-08-08T11:11:01;3.17;;;1.35;;
47772;SDS011;33534;51.028;13.716;2023-08-08T11:13:28;4.32;;;1.80;;
47772;SDS011;33534;51.028;13.716;2023-08-08T11:15:55;3.35;;;2.05;;
47772;SDS011;33534;51.028;13.716;2023-08-08T11:18:22;3.75;;;1.63;;
47772;SDS011;33534;51.028;13.716;2023-08-08T11:20:48;3.83;;;1.67;;
47772;SDS011;33534;51.028;13.716;2023-08-08T11:23:15;3.53;;;1.73;;
47772;SDS011;33534;51.028;13.716;2023-08-08T11:25:44;4.40;;;1.80;;
47772;SDS011;33534;51.028;13.716;2023-08-08T11:28:11;3.88;;;1.38;;
47772;SDS011;33534;51.028;13.716;2023-08-08T11:30:39;1.92;;;1.40;;
47772;SDS011;33534;51.028;13.716;2023-08-08T11:33:06;4.65;;;1.75;;
47772;SDS011;33534;51.028;13.716;2023-08-08T11:35:32;5.63;;;1.70;;
47772;SDS011;33534;51.028;13.716;2023-08-08T11:37:59;1.70;;;1.50;;
47772;SDS011;33534;51.028;13.716;2023-08-08T11:40:26;2.38;;;1.35;;
47772;SDS011;33534;51.028;13.716;2023-08-08T11:42:53;3.10;;;1.35;;
47772;SDS011;33534;51.028;13.716;2023-08-08T11:45:20;5.63;;;1.88;;
47772;SDS011;33534;51.028;13.716;2023-08-08T11:47:49;7.28;;;1.70;;
47772;SDS011;33534;51.028;13.716;2023-08-08T11:50:19;3.67;;;1.85;;
47772;SDS011;33534;51.028;13.716;2023-08-08T11:52:45;7.22;;;1.70;;
47772;SDS011;33534;51.028;13.716;2023-08-08T11:55:11;1.83;;;1.30;;
47772;SDS011;33534;51.028;13.716;2023-08-08T11:57:38;2.65;;;1.33;;
47772;SDS011;33534;51.028;13.716;2023-08-08T12:00:05;9.07;;;4.80;;
47772;SDS011;33534;51.028;13.716;2023-08-08T12:02:32;2.33;;;1.95;;
47772;SDS011;33534;51.028;13.716;2023-08-08T12:05:11;3.65;;;1.48;;
47772;SDS011;33534;51.028;13.716;2023-08-08T12:07:38;3.50;;;1.10;;
47772;SDS011;33534;51.028;13.716;2023-08-08T12:12:36;2.15;;;1.40;;
47772;SDS011;33534;51.028;13.716;2023-08-08T12:15:08;4.28;;;1.25;;
47772;SDS011;33534;51.028;13.716;2023-08-08T12:17:34;2.42;;;1.27;;
47772;SDS011;33534;51.028;13.716;2023-08-08T12:20:00;1.27;;;1.17;;
47772;SDS011;33534;51.028;13.716;2023-08-08T12:22:27;3.67;;;1.60;;
47772;SDS011;33534;51.028;13.716;2023-08-08T12:24:53;2.67;;;1.77;;
47772;SDS011;33534;51.028;13.716;2023-08-08T12:27:19;1.75;;;1.45;;
47772;SDS011;33534;51.028;13.716;2023-08-08T12:29:45;7.70;;;1.83;;
47772;SDS011;33534;51.028;13.716;2023-08-08T12:32:11;6.75;;;1.90;;
47772;SDS011;33534;51.028;13.716;2023-08-08T12:34:37;1.42;;;1.30;;
47772;SDS011;33534;51.028;13.716;2023-08-08T12:37:03;17.27;;;2.30;;
47772;SDS011;33534;51.028;13.716;2023-08-08T12:39:29;2.10;;;1.50;;
47772;SDS011;33534;51.028;13.716;2023-08-08T12:41:55;7.20;;;1.63;;
47772;SDS011;33534;51.028;13.716;2023-08-08T12:44:21;2.53;;;1.40;;
47772;SDS011;33534;51.028;13.716;2023-08-08T12:46:48;3.88;;;1.45;;
47772;SDS011;33534;51.028;13.716;2023-08-08T12:49:14;2.15;;;1.48;;
47772;SDS011;33534;51.028;13.716;2023-08-08T12:51:40;3.10;;;1.33;;
47772;SDS011;33534;51.028;13.716;2023-08-08T12:54:06;2.67;;;1.17;;
47772;SDS011;33534;51.028;13.716;2023-08-08T12:56:32;2.42;;;1.35;;
47772;SDS011;33534;51.028;13.716;2023-08-08T12:58:58;4.07;;;1.20;;
47772;SDS011;33534;51.028;13.716;2023-08-08T13:01:24;1.75;;;1.13;;
47772;SDS011;33534;51.028;13.716;2023-08-08T13:03:50;5.28;;;1.50;;
47772;SDS011;33534;51.028;13.716;2023-08-08T13:06:17;2.65;;;1.33;;
47772;SDS011;33534;51.028;13.716;2023-08-08T13:08:42;4.28;;;1.90;;
47772;SDS011;33534;51.028;13.716;2023-08-08T13:11:08;2.30;;;1.40;;
47772;SDS011;33534;51.028;13.716;2023-08-08T13:13:35;3.22;;;1.95;;
47772;SDS011;33534;51.028;13.716;2023-08-08T13:16:01;5.35;;;2.10;;
47772;SDS011;33534;51.028;13.716;2023-08-08T13:18:28;3.55;;;1.48;;
47772;SDS011;33534;51.028;13.716;2023-08-08T13:20:54;3.30;;;1.92;;
47772;SDS011;33534;51.028;13.716;2023-08-08T13:23:20;2.80;;;1.63;;
47772;SDS011;33534;51.028;13.716;2023-08-08T13:25:46;3.25;;;1.50;;
47772;SDS011;33534;51.028;13.716;2023-08-08T13:28:14;3.42;;;1.50;;
47772;SDS011;33534;51.028;13.716;2023-08-08T13:30:40;1.30;;;1.20;;
47772;SDS011;33534;51.028;13.716;2023-08-08T13:33:08;2.42;;;1.38;;
47772;SDS011;33534;51.028;13.716;2023-08-08T13:35:34;2.75;;;1.38;;
47772;SDS011;33534;51.028;13.716;2023-08-08T13:38:00;5.22;;;1.55;;
47772;SDS011;33534;51.028;13.716;2023-08-08T13:40:26;3.75;;;1.90;;
47772;SDS011;33534;51.028;13.716;2023-08-08T13:42:52;4.32;;;1.67;;
47772;SDS011;33534;51.028;13.716;2023-08-08T13:45:18;2.70;;;2.00;;
47772;SDS011;33534;51.028;13.716;2023-08-08T13:47:45;3.97;;;1.55;;
47772;SDS011;33534;51.028;13.716;2023-08-08T13:50:11;4.95;;;2.08;;
47772;SDS011;33534;51.028;13.716;2023-08-08T13:52:38;5.38;;;1.48;;
47772;SDS011;33534;51.028;13.716;2023-08-08T13:55:04;2.95;;;1.70;;
47772;SDS011;33534;51.028;13.716;2023-08-08T13:57:31;4.30;;;1.67;;
47772;SDS011;33534;51.028;13.716;2023-08-08T13:59:57;4.00;;;2.25;;
47772;SDS011;33534;51.028;13.716;2023-08-08T14:02:23;2.35;;;1.50;;
47772;SDS011;33534;51.028;13.716;2023-08-08T14:04:48;3.17;;;1.77;;
47772;SDS011;33534;51.028;13.716;2023-08-08T14:07:15;4.47;;;1.63;;
47772;SDS011;33534;51.028;13.716;2023-08-08T14:09:41;2.05;;;1.38;;
47772;SDS011;33534;51.028;13.716;2023-08-08T14:12:07;2.78;;;1.70;;
47772;SDS011;33534;51.028;13.716;2023-08-08T14:14:33;3.15;;;2.10;;
47772;SDS011;33534;51.028;13.716;2023-08-08T14:16:59;5.38;;;2.38;;
47772;SDS011;33534;51.028;13.716;2023-08-08T14:19:25;8.15;;;3.10;;
47772;SDS011;33534;51.028;13.716;2023-08-08T14:21:51;6.55;;;3.70;;
47772;SDS011;33534;51.028;13.716;2023-08-08T14:24:17;3.75;;;3.25;;
47772;SDS011;33534;51.028;13.716;2023-08-08T14:26:43;6.47;;;3.92;;
47772;SDS011;33534;51.028;13.716;2023-08-08T14:29:10;8.02;;;4.10;;
47772;SDS011;33534;51.028;13.716;2023-08-08T14:31:36;4.30;;;3.30;;
47772;SDS011;33534;51.028;13.716;2023-08-08T14:34:02;3.92;;;3.00;;
47772;SDS011;33534;51.028;13.716;2023-08-08T14:36:28;3.03;;;2.10;;